SCHR

Details ICAO SCHR
Name COCHRANE
Region Chile
Timezone America/Santiago (UTC-4.0)
Plans Departing 3
Arriving 5
Stats Elevation 643 ft / 196 m (AMSL)
Location -47.243846° -72.588415°
Runways 1
Magnetic Variation 11.313° E
Sunrise 2018-05-24 12:19:54 UTC / 2018-05-24 08:19:54 Local
Sunset 2018-05-24 21:17:23 UTC / 2018-05-24 17:17:23 Local
Advertisement - Login to hide

Runways

ID Width Length Bearing (true) Bearing (mag) Surface Threshold Offset Overrun Length
07 75 ft / 23 m 3,338 ft / 1,017 m 87.14° 75.83° Asphalt 0 ft / 0 m 0 ft / 0 m
25 75 ft / 23 m 3,338 ft / 1,017 m 267.13° 255.82° Asphalt 0 ft / 0 m 0 ft / 0 m

Map

Weather


0- 5 10 15 20 25 30 35+ Temperature / ° C

Clouds and Precipitation
Forecast for 2018-05-24 18:00 UTC. Updated 3 hours ago

Ground ~20,000 ft ~40,000 ft Winds

METAR

SCHR 241900Z 00000KT 9999 BKN040 10/08 Q1004

TAF

Not found

Frequencies

Tower 126.70 MHz INFO
Warning: Do not use this data for real-world aviation or navigation. No guarantee of current accuracy is given.